sensor_id;sensor_type;location;lat;lon;timestamp;pressure;altitude;pressure_sealevel;temperature;humidity
8280;BME280;8335;42.646;23.380;2022-08-04T00:00:32;94593.53;;;18.52;97.58
8280;BME280;8335;42.646;23.380;2022-08-04T00:03:12;94598.50;;;18.43;97.92
8280;BME280;8335;42.646;23.380;2022-08-04T00:05:52;94590.78;;;18.43;98.15
8280;BME280;8335;42.646;23.380;2022-08-04T00:08:35;94593.03;;;18.37;98.78
8280;BME280;8335;42.646;23.380;2022-08-04T00:11:08;94593.84;;;18.37;98.60
8280;BME280;8335;42.646;23.380;2022-08-04T00:13:38;94593.13;;;18.35;98.73
8280;BME280;8335;42.646;23.380;2022-08-04T00:16:08;94603.56;;;18.34;98.97
8280;BME280;8335;42.646;23.380;2022-08-04T00:18:41;94589.84;;;18.33;98.72
8280;BME280;8335;42.646;23.380;2022-08-04T00:21:12;94590.81;;;18.32;98.48
8280;BME280;8335;42.646;23.380;2022-08-04T00:23:42;94591.06;;;18.29;98.06
8280;BME280;8335;42.646;23.380;2022-08-04T00:26:10;94581.38;;;18.22;98.26
8280;BME280;8335;42.646;23.380;2022-08-04T00:28:38;94575.19;;;18.13;98.77
8280;BME280;8335;42.646;23.380;2022-08-04T00:31:08;94574.50;;;18.11;99.00
8280;BME280;8335;42.646;23.380;2022-08-04T00:33:36;94579.66;;;18.11;99.29
8280;BME280;8335;42.646;23.380;2022-08-04T00:36:03;94579.78;;;18.09;99.67
8280;BME280;8335;42.646;23.380;2022-08-04T00:38:31;94577.19;;;18.09;99.66
8280;BME280;8335;42.646;23.380;2022-08-04T00:41:05;94584.25;;;18.07;99.36
8280;BME280;8335;42.646;23.380;2022-08-04T00:43:42;94585.41;;;18.03;99.36
8280;BME280;8335;42.646;23.380;2022-08-04T00:46:27;94581.44;;;17.99;99.44
8280;BME280;8335;42.646;23.380;2022-08-04T00:52:18;94595.03;;;17.90;100.00
8280;BME280;8335;42.646;23.380;2022-08-04T00:55:10;94590.47;;;17.94;99.65
8280;BME280;8335;42.646;23.380;2022-08-04T00:57:54;94591.53;;;17.91;99.51
8280;BME280;8335;42.646;23.380;2022-08-04T01:00:25;94593.19;;;17.81;99.83
8280;BME280;8335;42.646;23.380;2022-08-04T01:03:05;94597.41;;;17.71;100.00
8280;BME280;8335;42.646;23.380;2022-08-04T01:05:44;94593.31;;;17.57;100.00
8280;BME280;8335;42.646;23.380;2022-08-04T01:11:23;94598.69;;;17.54;100.00
8280;BME280;8335;42.646;23.380;2022-08-04T01:14:01;94609.81;;;17.54;100.00
8280;BME280;8335;42.646;23.380;2022-08-04T01:16:34;94604.31;;;17.48;100.00
8280;BME280;8335;42.646;23.380;2022-08-04T01:19:14;94596.47;;;17.49;100.00
8280;BME280;8335;42.646;23.380;2022-08-04T01:22:25;94590.63;;;17.47;100.00
8280;BME280;8335;42.646;23.380;2022-08-04T01:25:11;94593.09;;;17.49;100.00
8280;BME280;8335;42.646;23.380;2022-08-04T01:28:05;94592.13;;;17.50;100.00
8280;BME280;8335;42.646;23.380;2022-08-04T01:30:41;94598.44;;;17.57;100.00
8280;BME280;8335;42.646;23.380;2022-08-04T01:33:12;94594.97;;;17.58;100.00
8280;BME280;8335;42.646;23.380;2022-08-04T01:35:45;94590.38;;;17.61;99.87
8280;BME280;8335;42.646;23.380;2022-08-04T01:38:16;94584.53;;;17.59;99.33
8280;BME280;8335;42.646;23.380;2022-08-04T01:40:44;94587.00;;;17.61;99.32
8280;BME280;8335;42.646;23.380;2022-08-04T01:43:13;94584.53;;;17.59;99.07
8280;BME280;8335;42.646;23.380;2022-08-04T01:45:41;94592.00;;;17.63;99.13
8280;BME280;8335;42.646;23.380;2022-08-04T01:48:09;94595.31;;;17.65;99.35
8280;BME280;8335;42.646;23.380;2022-08-04T01:50:37;94586.53;;;17.56;99.83
8280;BME280;8335;42.646;23.380;2022-08-04T01:53:05;94595.31;;;17.53;100.00
8280;BME280;8335;42.646;23.380;2022-08-04T01:55:32;94588.53;;;17.52;99.68
8280;BME280;8335;42.646;23.380;2022-08-04T01:57:59;94587.72;;;17.52;99.95
8280;BME280;8335;42.646;23.380;2022-08-04T02:00:28;94587.59;;;17.53;99.67
8280;BME280;8335;42.646;23.380;2022-08-04T02:02:56;94590.63;;;17.58;99.41
8280;BME280;8335;42.646;23.380;2022-08-04T02:05:24;94592.13;;;17.61;99.07
8280;BME280;8335;42.646;23.380;2022-08-04T02:08:04;94593.00;;;17.50;99.22
8280;BME280;8335;42.646;23.380;2022-08-04T02:13:26;94596.72;;;17.35;100.00
8280;BME280;8335;42.646;23.380;2022-08-04T02:15:57;94594.50;;;17.30;100.00
8280;BME280;8335;42.646;23.380;2022-08-04T02:18:30;94593.78;;;17.28;100.00
8280;BME280;8335;42.646;23.380;2022-08-04T02:20:59;94580.69;;;17.20;100.00
8280;BME280;8335;42.646;23.380;2022-08-04T02:23:34;94582.94;;;17.25;100.00
8280;BME280;8335;42.646;23.380;2022-08-04T02:26:03;94588.31;;;17.22;100.00
8280;BME280;8335;42.646;23.380;2022-08-04T02:28:35;94584.00;;;17.22;100.00
8280;BME280;8335;42.646;23.380;2022-08-04T02:34:05;94585.97;;;17.19;100.00
8280;BME280;8335;42.646;23.380;2022-08-04T02:36:36;94587.47;;;17.21;100.00
8280;BME280;8335;42.646;23.380;2022-08-04T02:39:04;94590.53;;;17.26;100.00
8280;BME280;8335;42.646;23.380;2022-08-04T02:41:32;94590.88;;;17.22;100.00
8280;BME280;8335;42.646;23.380;2022-08-04T02:44:01;94592.16;;;17.16;100.00
8280;BME280;8335;42.646;23.380;2022-08-04T02:46:30;94584.22;;;17.08;100.00
8280;BME280;8335;42.646;23.380;2022-08-04T02:49:01;94592.63;;;17.10;100.00
8280;BME280;8335;42.646;23.380;2022-08-04T02:51:31;94596.25;;;17.08;100.00
8280;BME280;8335;42.646;23.380;2022-08-04T02:53:59;94596.97;;;17.10;100.00
8280;BME280;8335;42.646;23.380;2022-08-04T02:56:29;94590.19;;;17.09;100.00
8280;BME280;8335;42.646;23.380;2022-08-04T02:58:59;94584.56;;;17.03;100.00
8280;BME280;8335;42.646;23.380;2022-08-04T03:01:26;94594.97;;;17.02;100.00
8280;BME280;8335;42.646;23.380;2022-08-04T03:04:05;94585.72;;;16.99;100.00
8280;BME280;8335;42.646;23.380;2022-08-04T03:06:58;94598.47;;;17.01;100.00
8280;BME280;8335;42.646;23.380;2022-08-04T03:13:21;94593.34;;;17.01;100.00
8280;BME280;8335;42.646;23.380;2022-08-04T03:16:02;94599.38;;;17.00;100.00
8280;BME280;8335;42.646;23.380;2022-08-04T03:31:06;94591.78;;;17.21;100.00
8280;BME280;8335;42.646;23.380;2022-08-04T03:34:01;94591.34;;;17.27;100.00
8280;BME280;8335;42.646;23.380;2022-08-04T03:36:53;94588.44;;;17.31;99.31
8280;BME280;8335;42.646;23.380;2022-08-04T03:39:57;94592.28;;;17.37;98.59
8280;BME280;8335;42.646;23.380;2022-08-04T03:42:41;94585.13;;;17.41;97.79
8280;BME280;8335;42.646;23.380;2022-08-04T03:45:33;94602.69;;;17.36;97.99
8280;BME280;8335;42.646;23.380;2022-08-04T03:51:17;94592.88;;;17.29;98.55
8280;BME280;8335;42.646;23.380;2022-08-04T03:54:32;94588.41;;;17.43;97.86
8280;BME280;8335;42.646;23.380;2022-08-04T03:57:20;94597.06;;;17.53;97.18
8280;BME280;8335;42.646;23.380;2022-08-04T04:00:04;94600.72;;;17.73;96.46
8280;BME280;8335;42.646;23.380;2022-08-04T04:03:00;94597.81;;;18.09;95.31
8280;BME280;8335;42.646;23.380;2022-08-04T04:05:46;94601.97;;;18.54;92.47
8280;BME280;8335;42.646;23.380;2022-08-04T04:11:43;94606.88;;;19.19;89.77
8280;BME280;8335;42.646;23.380;2022-08-04T04:14:22;94604.13;;;19.72;86.73
8280;BME280;8335;42.646;23.380;2022-08-04T04:17:20;94609.69;;;20.37;83.19
8280;BME280;8335;42.646;23.380;2022-08-04T04:20:13;94623.69;;;20.93;80.05
8280;BME280;8335;42.646;23.380;2022-08-04T04:22:59;94624.19;;;21.62;76.71
8280;BME280;8335;42.646;23.380;2022-08-04T04:25:48;94624.69;;;22.03;74.37
8280;BME280;8335;42.646;23.380;2022-08-04T04:28:31;94628.81;;;22.77;72.33
8280;BME280;8335;42.646;23.380;2022-08-04T04:31:20;94626.06;;;23.48;69.09
8280;BME280;8335;42.646;23.380;2022-08-04T04:34:14;94624.31;;;23.57;67.20
8280;BME280;8335;42.646;23.380;2022-08-04T04:36:49;94620.97;;;23.30;67.72
8280;BME280;8335;42.646;23.380;2022-08-04T04:39:25;94615.91;;;23.03;69.12
8280;BME280;8335;42.646;23.380;2022-08-04T04:42:31;94630.69;;;23.88;67.40
8280;BME280;8335;42.646;23.380;2022-08-04T04:45:08;94645.34;;;24.56;63.62
8280;BME280;8335;42.646;23.380;2022-08-04T04:47:50;94643.47;;;25.23;61.42
8280;BME280;8335;42.646;23.380;2022-08-04T04:50:27;94643.78;;;26.00;58.70
8280;BME280;8335;42.646;23.380;2022-08-04T04:53:03;94645.63;;;26.15;57.51
8280;BME280;8335;42.646;23.380;2022-08-04T04:55:37;94653.09;;;25.95;58.49
8280;BME280;8335;42.646;23.380;2022-08-04T04:58:07;94639.31;;;25.53;59.56
8280;BME280;8335;42.646;23.380;2022-08-04T05:00:49;94635.47;;;25.01;61.10
8280;BME280;8335;42.646;23.380;2022-08-04T05:03:32;94641.16;;;24.80;62.40
8280;BME280;8335;42.646;23.380;2022-08-04T05:06:13;94630.41;;;24.58;63.54
8280;BME280;8335;42.646;23.380;2022-08-04T05:09:02;94633.59;;;24.36;64.47
8280;BME280;8335;42.646;23.380;2022-08-04T05:11:59;94630.47;;;24.16;65.20
8280;BME280;8335;42.646;23.380;2022-08-04T05:14:34;94629.97;;;23.78;66.40
8280;BME280;8335;42.646;23.380;2022-08-04T05:17:08;94642.84;;;23.54;67.51
8280;BME280;8335;42.646;23.380;2022-08-04T05:19:47;94644.41;;;23.21;69.16
8280;BME280;8335;42.646;23.380;2022-08-04T05:22:21;94643.06;;;22.91;71.41
8280;BME280;8335;42.646;23.380;2022-08-04T05:24:53;94643.66;;;23.28;70.82
8280;BME280;8335;42.646;23.380;2022-08-04T05:27:30;94647.66;;;23.67;69.53
8280;BME280;8335;42.646;23.380;2022-08-04T05:30:02;94650.75;;;24.63;66.54
8280;BME280;8335;42.646;23.380;2022-08-04T05:32:36;94645.06;;;25.33;63.24
8280;BME280;8335;42.646;23.380;2022-08-04T05:35:07;94649.38;;;25.81;61.83
8280;BME280;8335;42.646;23.380;2022-08-04T05:37:37;94655.88;;;25.93;60.90
8280;BME280;8335;42.646;23.380;2022-08-04T05:40:06;94649.03;;;26.23;60.53
8280;BME280;8335;42.646;23.380;2022-08-04T05:42:36;94647.41;;;26.99;58.88
8280;BME280;8335;42.646;23.380;2022-08-04T05:45:05;94655.56;;;27.42;55.59
8280;BME280;8335;42.646;23.380;2022-08-04T05:47:34;94664.38;;;27.79;54.53
8280;BME280;8335;42.646;23.380;2022-08-04T05:50:04;94668.59;;;28.24;52.66
8280;BME280;8335;42.646;23.380;2022-08-04T05:52:33;94663.22;;;29.04;51.64
8280;BME280;8335;42.646;23.380;2022-08-04T05:55:03;94673.41;;;29.98;49.24
8280;BME280;8335;42.646;23.380;2022-08-04T05:57:31;94669.22;;;30.52;45.88
8280;BME280;8335;42.646;23.380;2022-08-04T06:00:02;94676.47;;;31.11;44.59
8280;BME280;8335;42.646;23.380;2022-08-04T06:02:29;94676.69;;;31.36;43.62
8280;BME280;8335;42.646;23.380;2022-08-04T06:04:58;94677.88;;;31.86;42.84
8280;BME280;8335;42.646;23.380;2022-08-04T06:07:26;94689.59;;;32.10;42.36
8280;BME280;8335;42.646;23.380;2022-08-04T06:09:53;94678.56;;;32.40;41.92
8280;BME280;8335;42.646;23.380;2022-08-04T06:12:24;94697.75;;;32.98;41.06
8280;BME280;8335;42.646;23.380;2022-08-04T06:14:55;94692.97;;;33.70;39.35
8280;BME280;8335;42.646;23.380;2022-08-04T06:17:25;94687.25;;;34.35;37.97
8280;BME280;8335;42.646;23.380;2022-08-04T06:19:55;94692.72;;;34.88;37.22
8280;BME280;8335;42.646;23.380;2022-08-04T06:22:23;94689.69;;;35.03;36.84
8280;BME280;8335;42.646;23.380;2022-08-04T06:24:52;94692.25;;;35.21;36.01
8280;BME280;8335;42.646;23.380;2022-08-04T06:27:21;94687.50;;;35.12;35.81
8280;BME280;8335;42.646;23.380;2022-08-04T06:29:49;94695.56;;;34.57;36.70
8280;BME280;8335;42.646;23.380;2022-08-04T06:32:18;94693.50;;;34.04;37.40
8280;BME280;8335;42.646;23.380;2022-08-04T06:34:54;94697.22;;;33.71;38.35
8280;BME280;8335;42.646;23.380;2022-08-04T06:37:22;94699.34;;;33.87;37.55
8280;BME280;8335;42.646;23.380;2022-08-04T06:39:51;94703.53;;;34.13;37.38
8280;BME280;8335;42.646;23.380;2022-08-04T06:42:22;94697.56;;;34.91;36.39
8280;BME280;8335;42.646;23.380;2022-08-04T06:44:51;94699.13;;;35.52;35.25
8280;BME280;8335;42.646;23.380;2022-08-04T06:47:19;94706.63;;;35.44;34.50
8280;BME280;8335;42.646;23.380;2022-08-04T06:49:49;94701.81;;;34.92;35.65
8280;BME280;8335;42.646;23.380;2022-08-04T06:52:18;94691.56;;;34.29;37.13
8280;BME280;8335;42.646;23.380;2022-08-04T06:54:46;94702.75;;;33.94;37.64
8280;BME280;8335;42.646;23.380;2022-08-04T06:57:19;94694.34;;;33.54;38.48
8280;BME280;8335;42.646;23.380;2022-08-04T06:59:52;94698.75;;;33.04;40.07
8280;BME280;8335;42.646;23.380;2022-08-04T07:02:25;94687.09;;;32.87;41.39
8280;BME280;8335;42.646;23.380;2022-08-04T07:04:53;94698.41;;;32.42;41.68
8280;BME280;8335;42.646;23.380;2022-08-04T07:07:20;94690.63;;;31.76;43.38
8280;BME280;8335;42.646;23.380;2022-08-04T07:09:49;94692.47;;;31.75;43.51
8280;BME280;8335;42.646;23.380;2022-08-04T07:12:17;94694.38;;;32.40;42.61
8280;BME280;8335;42.646;23.380;2022-08-04T07:14:46;94695.09;;;32.60;42.27
8280;BME280;8335;42.646;23.380;2022-08-04T07:17:15;94695.25;;;33.10;40.42
8280;BME280;8335;42.646;23.380;2022-08-04T07:19:42;94697.25;;;33.14;40.25
8280;BME280;8335;42.646;23.380;2022-08-04T07:22:10;94695.75;;;33.25;40.05
8280;BME280;8335;42.646;23.380;2022-08-04T07:24:37;94691.91;;;33.53;40.28
8280;BME280;8335;42.646;23.380;2022-08-04T07:27:05;94687.41;;;34.21;39.42
8280;BME280;8335;42.646;23.380;2022-08-04T07:29:32;94689.78;;;34.78;38.32
8280;BME280;8335;42.646;23.380;2022-08-04T07:32:00;94681.75;;;35.15;37.33
8280;BME280;8335;42.646;23.380;2022-08-04T07:34:29;94687.88;;;35.80;36.36
8280;BME280;8335;42.646;23.380;2022-08-04T07:36:59;94689.53;;;36.33;35.24
8280;BME280;8335;42.646;23.380;2022-08-04T07:39:27;94690.94;;;36.48;35.03
8280;BME280;8335;42.646;23.380;2022-08-04T07:41:57;94688.78;;;35.63;35.66
8280;BME280;8335;42.646;23.380;2022-08-04T07:44:24;94687.66;;;34.87;36.37
8280;BME280;8335;42.646;23.380;2022-08-04T07:46:52;94687.81;;;34.00;37.89
8280;BME280;8335;42.646;23.380;2022-08-04T07:49:19;94684.34;;;33.31;39.12
8280;BME280;8335;42.646;23.380;2022-08-04T07:51:48;94689.28;;;33.21;39.97
8280;BME280;8335;42.646;23.380;2022-08-04T07:54:16;94685.72;;;33.09;41.44
8280;BME280;8335;42.646;23.380;2022-08-04T07:56:44;94683.81;;;32.84;41.04
8280;BME280;8335;42.646;23.380;2022-08-04T07:59:13;94679.94;;;32.49;41.97
8280;BME280;8335;42.646;23.380;2022-08-04T08:01:40;94673.22;;;31.88;42.97
8280;BME280;8335;42.646;23.380;2022-08-04T08:04:08;94669.38;;;31.58;44.76
8280;BME280;8335;42.646;23.380;2022-08-04T08:06:36;94675.28;;;31.33;44.72
8280;BME280;8335;42.646;23.380;2022-08-04T08:09:10;94671.84;;;31.26;45.50
8280;BME280;8335;42.646;23.380;2022-08-04T08:11:37;94669.59;;;31.36;45.61
8280;BME280;8335;42.646;23.380;2022-08-04T08:14:04;94672.66;;;31.46;45.80
8280;BME280;8335;42.646;23.380;2022-08-04T08:16:33;94671.22;;;31.50;45.37
8280;BME280;8335;42.646;23.380;2022-08-04T08:19:00;94671.59;;;31.94;44.42
8280;BME280;8335;42.646;23.380;2022-08-04T08:21:27;94671.47;;;32.27;43.30
8280;BME280;8335;42.646;23.380;2022-08-04T08:23:55;94683.00;;;32.91;42.53
8280;BME280;8335;42.646;23.380;2022-08-04T08:26:23;94678.03;;;33.39;42.03
8280;BME280;8335;42.646;23.380;2022-08-04T08:28:50;94683.69;;;33.86;40.83
8280;BME280;8335;42.646;23.380;2022-08-04T08:31:17;94687.63;;;34.38;39.15
8280;BME280;8335;42.646;23.380;2022-08-04T08:33:45;94684.41;;;35.15;38.20
8280;BME280;8335;42.646;23.380;2022-08-04T08:36:17;94685.41;;;35.79;35.93
8280;BME280;8335;42.646;23.380;2022-08-04T08:38:52;94692.00;;;36.00;35.40
8280;BME280;8335;42.646;23.380;2022-08-04T08:41:40;94695.94;;;35.97;35.45
8280;BME280;8335;42.646;23.380;2022-08-04T08:47:20;94684.03;;;35.41;36.67
8280;BME280;8335;42.646;23.380;2022-08-04T08:50:15;94686.94;;;35.21;35.94
8280;BME280;8335;42.646;23.380;2022-08-04T08:52:57;94685.53;;;35.49;35.73
8280;BME280;8335;42.646;23.380;2022-08-04T08:55:36;94684.19;;;35.93;34.18
8280;BME280;8335;42.646;23.380;2022-08-04T08:58:26;94689.44;;;36.52;32.96
8280;BME280;8335;42.646;23.380;2022-08-04T09:01:03;94691.28;;;37.54;31.62
8280;BME280;8335;42.646;23.380;2022-08-04T09:03:50;94692.56;;;37.85;30.38
8280;BME280;8335;42.646;23.380;2022-08-04T09:06:49;94691.59;;;37.57;29.76
8280;BME280;8335;42.646;23.380;2022-08-04T09:09:52;94683.91;;;37.78;29.28
8280;BME280;8335;42.646;23.380;2022-08-04T09:12:30;94692.03;;;38.05;29.49
8280;BME280;8335;42.646;23.380;2022-08-04T09:15:04;94689.25;;;38.55;28.30
8280;BME280;8335;42.646;23.380;2022-08-04T09:17:38;94684.75;;;39.04;27.02
8280;BME280;8335;42.646;23.380;2022-08-04T09:20:09;94681.94;;;38.89;27.58
8280;BME280;8335;42.646;23.380;2022-08-04T09:22:43;94676.56;;;38.62;27.31
8280;BME280;8335;42.646;23.380;2022-08-04T09:25:19;94679.84;;;38.25;27.20
8280;BME280;8335;42.646;23.380;2022-08-04T09:27:51;94677.59;;;38.17;28.42
8280;BME280;8335;42.646;23.380;2022-08-04T09:30:22;94676.69;;;37.90;29.14
8280;BME280;8335;42.646;23.380;2022-08-04T09:33:15;94680.16;;;37.73;29.23
8280;BME280;8335;42.646;23.380;2022-08-04T09:35:47;94673.34;;;37.99;29.17
8280;BME280;8335;42.646;23.380;2022-08-04T09:38:26;94677.09;;;38.37;28.03
8280;BME280;8335;42.646;23.380;2022-08-04T09:40:59;94680.03;;;38.63;28.68
8280;BME280;8335;42.646;23.380;2022-08-04T09:43:35;94670.25;;;39.17;27.43
8280;BME280;8335;42.646;23.380;2022-08-04T09:46:08;94680.88;;;38.90;25.75
8280;BME280;8335;42.646;23.380;2022-08-04T09:48:43;94682.22;;;38.93;26.01
8280;BME280;8335;42.646;23.380;2022-08-04T09:51:20;94678.56;;;39.26;26.78
8280;BME280;8335;42.646;23.380;2022-08-04T09:53:56;94679.56;;;39.47;25.36
8280;BME280;8335;42.646;23.380;2022-08-04T09:56:31;94680.88;;;38.90;25.74
8280;BME280;8335;42.646;23.380;2022-08-04T10:01:54;94675.53;;;39.44;24.75
8280;BME280;8335;42.646;23.380;2022-08-04T10:04:23;94668.91;;;38.93;24.89
8280;BME280;8335;42.646;23.380;2022-08-04T10:07:03;94666.19;;;38.39;25.63
8280;BME280;8335;42.646;23.380;2022-08-04T10:09:51;94670.69;;;37.99;26.28
8280;BME280;8335;42.646;23.380;2022-08-04T10:12:34;94661.38;;;37.30;26.55
8280;BME280;8335;42.646;23.380;2022-08-04T10:15:09;94652.19;;;36.35;27.00
8280;BME280;8335;42.646;23.380;2022-08-04T10:18:01;94661.47;;;35.62;28.00
8280;BME280;8335;42.646;23.380;2022-08-04T10:20:41;94647.50;;;35.32;29.53
8280;BME280;8335;42.646;23.380;2022-08-04T10:23:17;94646.78;;;34.53;30.99
8280;BME280;8335;42.646;23.380;2022-08-04T10:25:49;94649.16;;;34.06;32.33
8280;BME280;8335;42.646;23.380;2022-08-04T10:28:20;94647.38;;;34.00;31.55
8280;BME280;8335;42.646;23.380;2022-08-04T10:30:53;94646.66;;;34.11;33.20
8280;BME280;8335;42.646;23.380;2022-08-04T10:33:26;94649.75;;;33.64;32.79
8280;BME280;8335;42.646;23.380;2022-08-04T10:36:00;94645.63;;;33.50;33.61
8280;BME280;8335;42.646;23.380;2022-08-04T10:38:29;94638.38;;;33.46;33.12
8280;BME280;8335;42.646;23.380;2022-08-04T10:40:59;94636.72;;;33.20;33.16
8280;BME280;8335;42.646;23.380;2022-08-04T10:43:36;94634.97;;;33.07;32.43
8280;BME280;8335;42.646;23.380;2022-08-04T10:46:09;94635.97;;;33.12;32.67
8280;BME280;8335;42.646;23.380;2022-08-04T10:48:42;94634.94;;;33.13;32.35
8280;BME280;8335;42.646;23.380;2022-08-04T10:51:19;94625.50;;;32.99;34.19
8280;BME280;8335;42.646;23.380;2022-08-04T10:53:55;94632.19;;;33.02;33.64
8280;BME280;8335;42.646;23.380;2022-08-04T10:56:29;94625.72;;;32.98;33.10
8280;BME280;8335;42.646;23.380;2022-08-04T10:59:02;94628.72;;;32.70;33.00
8280;BME280;8335;42.646;23.380;2022-08-04T11:01:32;94623.69;;;32.62;32.63
8280;BME280;8335;42.646;23.380;2022-08-04T11:04:06;94629.97;;;32.67;31.37
8280;BME280;8335;42.646;23.380;2022-08-04T11:06:34;94616.16;;;33.03;29.11
8280;BME280;8335;42.646;23.380;2022-08-04T11:09:02;94622.94;;;33.18;29.27
8280;BME280;8335;42.646;23.380;2022-08-04T11:11:34;94612.00;;;33.14;28.60
8280;BME280;8335;42.646;23.380;2022-08-04T11:14:06;94614.53;;;33.27;29.13
8280;BME280;8335;42.646;23.380;2022-08-04T11:16:38;94610.19;;;32.83;28.79
8280;BME280;8335;42.646;23.380;2022-08-04T11:19:16;94615.66;;;32.81;27.97
8280;BME280;8335;42.646;23.380;2022-08-04T11:21:50;94603.88;;;32.52;27.88
8280;BME280;8335;42.646;23.380;2022-08-04T11:24:25;94596.84;;;32.40;30.48
8280;BME280;8335;42.646;23.380;2022-08-04T11:26:59;94601.75;;;32.29;31.55
8280;BME280;8335;42.646;23.380;2022-08-04T11:29:31;94602.44;;;32.56;30.61
8280;BME280;8335;42.646;23.380;2022-08-04T11:32:02;94602.84;;;32.92;30.57
8280;BME280;8335;42.646;23.380;2022-08-04T11:34:33;94603.69;;;32.79;28.17
8280;BME280;8335;42.646;23.380;2022-08-04T11:37:05;94593.38;;;32.77;28.58
8280;BME280;8335;42.646;23.380;2022-08-04T11:39:36;94598.00;;;32.82;28.71
8280;BME280;8335;42.646;23.380;2022-08-04T11:42:09;94593.41;;;32.71;28.13
8280;BME280;8335;42.646;23.380;2022-08-04T11:44:42;94594.63;;;32.75;28.28
8280;BME280;8335;42.646;23.380;2022-08-04T11:47:20;94587.63;;;32.17;27.98
8280;BME280;8335;42.646;23.380;2022-08-04T11:49:53;94592.16;;;31.97;29.27
8280;BME280;8335;42.646;23.380;2022-08-04T11:52:22;94586.56;;;31.80;29.85
8280;BME280;8335;42.646;23.380;2022-08-04T11:54:49;94585.56;;;31.55;30.53
8280;BME280;8335;42.646;23.380;2022-08-04T11:57:17;94593.03;;;31.64;29.75
8280;BME280;8335;42.646;23.380;2022-08-04T11:59:44;94583.94;;;31.67;29.70
8280;BME280;8335;42.646;23.380;2022-08-04T12:02:32;94580.47;;;31.73;30.89
8280;BME280;8335;42.646;23.380;2022-08-04T12:05:07;94584.09;;;31.72;30.89
8280;BME280;8335;42.646;23.380;2022-08-04T12:07:43;94583.31;;;31.78;30.57
8280;BME280;8335;42.646;23.380;2022-08-04T12:10:23;94583.31;;;31.65;30.94
8280;BME280;8335;42.646;23.380;2022-08-04T12:13:00;94575.38;;;31.85;31.13
8280;BME280;8335;42.646;23.380;2022-08-04T12:15:31;94584.63;;;32.00;30.45
8280;BME280;8335;42.646;23.380;2022-08-04T12:18:07;94590.53;;;31.96;30.20
8280;BME280;8335;42.646;23.380;2022-08-04T12:20:42;94585.25;;;32.02;30.25
8280;BME280;8335;42.646;23.380;2022-08-04T12:23:18;94578.81;;;31.92;29.67
8280;BME280;8335;42.646;23.380;2022-08-04T12:25:48;94587.34;;;31.74;30.49
8280;BME280;8335;42.646;23.380;2022-08-04T12:28:18;94580.50;;;31.60;29.84
8280;BME280;8335;42.646;23.380;2022-08-04T12:30:51;94576.91;;;31.34;30.36
8280;BME280;8335;42.646;23.380;2022-08-04T12:33:24;94580.91;;;31.50;30.58
8280;BME280;8335;42.646;23.380;2022-08-04T12:35:58;94576.88;;;31.47;29.77
8280;BME280;8335;42.646;23.380;2022-08-04T12:38:29;94574.44;;;31.53;30.80
8280;BME280;8335;42.646;23.380;2022-08-04T12:40:59;94576.66;;;31.49;31.31
8280;BME280;8335;42.646;23.380;2022-08-04T12:43:34;94572.28;;;31.30;31.26
8280;BME280;8335;42.646;23.380;2022-08-04T12:46:05;94566.22;;;31.22;30.68
8280;BME280;8335;42.646;23.380;2022-08-04T12:48:36;94564.16;;;31.18;30.62
8280;BME280;8335;42.646;23.380;2022-08-04T12:51:07;94558.88;;;31.18;33.42
8280;BME280;8335;42.646;23.380;2022-08-04T12:53:37;94561.94;;;31.28;32.24
8280;BME280;8335;42.646;23.380;2022-08-04T12:56:06;94562.09;;;31.46;32.40
8280;BME280;8335;42.646;23.380;2022-08-04T12:58:37;94551.97;;;31.50;33.01
8280;BME280;8335;42.646;23.380;2022-08-04T13:01:06;94559.03;;;31.56;32.76
8280;BME280;8335;42.646;23.380;2022-08-04T13:03:37;94556.81;;;31.66;32.33
8280;BME280;8335;42.646;23.380;2022-08-04T13:06:06;94553.94;;;31.74;31.84
8280;BME280;8335;42.646;23.380;2022-08-04T13:08:36;94536.13;;;31.70;32.00
8280;BME280;8335;42.646;23.380;2022-08-04T13:11:05;94550.69;;;31.79;32.90
8280;BME280;8335;42.646;23.380;2022-08-04T13:13:35;94552.31;;;31.80;31.85
8280;BME280;8335;42.646;23.380;2022-08-04T13:16:04;94546.25;;;31.80;30.05
8280;BME280;8335;42.646;23.380;2022-08-04T13:18:33;94554.34;;;31.65;30.28
8280;BME280;8335;42.646;23.380;2022-08-04T13:21:12;94554.78;;;31.55;31.65
8280;BME280;8335;42.646;23.380;2022-08-04T13:23:40;94550.53;;;31.54;32.29
8280;BME280;8335;42.646;23.380;2022-08-04T13:26:10;94546.53;;;31.45;32.82
8280;BME280;8335;42.646;23.380;2022-08-04T13:28:38;94550.34;;;31.49;32.27
8280;BME280;8335;42.646;23.380;2022-08-04T13:31:07;94541.03;;;31.53;32.79
8280;BME280;8335;42.646;23.380;2022-08-04T13:33:40;94543.06;;;31.51;32.00
8280;BME280;8335;42.646;23.380;2022-08-04T13:36:09;94538.44;;;31.40;31.60
8280;BME280;8335;42.646;23.380;2022-08-04T13:38:39;94539.84;;;31.42;32.66
8280;BME280;8335;42.646;23.380;2022-08-04T13:41:06;94534.56;;;31.49;32.91
8280;BME280;8335;42.646;23.380;2022-08-04T13:43:40;94533.16;;;31.53;32.05
8280;BME280;8335;42.646;23.380;2022-08-04T13:46:08;94532.94;;;31.55;31.63
8280;BME280;8335;42.646;23.380;2022-08-04T13:48:40;94533.97;;;31.47;31.48
8280;BME280;8335;42.646;23.380;2022-08-04T13:51:10;94529.94;;;31.18;31.58
8280;BME280;8335;42.646;23.380;2022-08-04T13:53:39;94527.56;;;31.03;31.18
8280;BME280;8335;42.646;23.380;2022-08-04T13:56:08;94525.31;;;31.00;31.30
8280;BME280;8335;42.646;23.380;2022-08-04T13:58:40;94526.09;;;31.07;33.27
8280;BME280;8335;42.646;23.380;2022-08-04T14:01:10;94520.66;;;31.15;32.69
8280;BME280;8335;42.646;23.380;2022-08-04T14:03:43;94516.22;;;31.16;32.40
8280;BME280;8335;42.646;23.380;2022-08-04T14:06:17;94508.31;;;31.16;32.05
8280;BME280;8335;42.646;23.380;2022-08-04T14:08:48;94510.94;;;31.16;32.21
8280;BME280;8335;42.646;23.380;2022-08-04T14:11:16;94514.16;;;31.18;32.18
8280;BME280;8335;42.646;23.380;2022-08-04T14:13:44;94511.13;;;31.21;32.39
8280;BME280;8335;42.646;23.380;2022-08-04T14:16:15;94513.38;;;31.24;33.05
8280;BME280;8335;42.646;23.380;2022-08-04T14:18:42;94503.06;;;31.22;32.98
8280;BME280;8335;42.646;23.380;2022-08-04T14:21:10;94499.59;;;31.22;32.98
8280;BME280;8335;42.646;23.380;2022-08-04T14:23:42;94497.81;;;31.09;31.98
8280;BME280;8335;42.646;23.380;2022-08-04T14:26:28;94505.28;;;30.92;32.05